Vremea acum in Zlatna - Romania

Vrei sa afli care e starea vremii acum in Arad - Romania? Dorim sa iti furnizam starea vremii pentru Arad - Romania. Starea vremii Arad - Romania pentru astazi.

Vremea acum in Zlatna

Temperatura: 9.5 °C

Este: Senin
Se simte ca: 9 °C
Innorat: 5 %
Precipitatii: 0 %
Presiune atmosferica: 1014 hPa
Umiditate: 75%
Vizibilitate: 10 km
Vantul bate din WSW cu 5.8 km/h

Evolutia vremii in Zlatna pe ore

Ora: 06:00
Senin
Temperatura: 9.2°C
Sansa de precipitatii: 0%
Ora Descriere Temp Se simte Precipitatii Umiditate Vant
00:00Senin11.4°10.7°0%68%WSW 7.6 KM/H
01:00Senin10.7°10.1°0%71%WSW 7.2 KM/H
02:00Senin10.4°9.7°0%72%WSW 6.8 KM/H
03:00Senin10°9.2°0%73%WSW 7.2 KM/H
04:00Patchy rain nearby9.7°9.2°86%75%WSW 5.8 KM/H
05:00Senin9.5°0%75%WSW 5.8 KM/H
06:00Senin9.2°8.8°0%75%WSW 5 KM/H
07:00Senin10°10.3°0%74%WSW 3.6 KM/H
08:00Senin14.2°14.2°0%67%WSW 2.9 KM/H
09:00Senin16.9°16.9°0%61%SW 3.6 KM/H
10:00Senin19°19°0%56%SW 5.4 KM/H
11:00Senin20.8°20.8°0%50%SW 6.8 KM/H
12:00Senin22.4°24.4°0%45%SW 7.6 KM/H
13:00Senin23.6°24.7°0%41%SW 7.9 KM/H
14:00Senin24.5°24.9°0%37%SW 6.8 KM/H
15:00Senin25.2°25.2°0%34%SSW 5.8 KM/H
16:00Senin25.3°25.2°0%33%S 6.1 KM/H
17:00Senin25.2°25.2°0%34%SSE 6.8 KM/H
18:00Thundery outbreaks in nearby24.3°25.1°0%43%SSW 9.7 KM/H
19:00Thundery outbreaks in nearby18.7°18.7°100%59%SW 14 KM/H
20:00Patchy rain nearby15.6°15.6°61%67%WSW 10.1 KM/H
21:00Senin13.9°13.5°0%70%W 8.6 KM/H
22:00Senin13.1°12.9°0%71%W 6.8 KM/H
23:00Senin12.4°12.6°0%71%W 4.7 KM/H




tutorials